sensor_id;sensor_type;location;lat;lon;timestamp;pressure;altitude;pressure_sealevel;temperature;humidity
73817;BME280;62146;53.232;-1.304;2022-07-31T00:00:15;100358.63;;;21.33;96.45
73817;BME280;62146;53.232;-1.304;2022-07-31T00:02:41;100372.91;;;21.34;96.15
73817;BME280;62146;53.232;-1.304;2022-07-31T00:05:08;100370.94;;;21.26;96.47
73817;BME280;62146;53.232;-1.304;2022-07-31T00:07:35;100370.84;;;21.31;96.73
73817;BME280;62146;53.232;-1.304;2022-07-31T00:10:03;100358.81;;;21.37;96.78
73817;BME280;62146;53.232;-1.304;2022-07-31T00:12:30;100361.00;;;21.35;97.19
73817;BME280;62146;53.232;-1.304;2022-07-31T00:14:56;100366.41;;;21.35;97.07
73817;BME280;62146;53.232;-1.304;2022-07-31T00:17:23;100359.13;;;21.44;97.01
73817;BME280;62146;53.232;-1.304;2022-07-31T00:19:50;100357.09;;;21.41;96.69
73817;BME280;62146;53.232;-1.304;2022-07-31T00:22:16;100359.47;;;21.42;96.72
73817;BME280;62146;53.232;-1.304;2022-07-31T00:24:43;100354.72;;;21.48;96.21
73817;BME280;62146;53.232;-1.304;2022-07-31T00:27:10;100358.09;;;21.53;95.66
73817;BME280;62146;53.232;-1.304;2022-07-31T00:29:37;100351.72;;;21.49;96.03
73817;BME280;62146;53.232;-1.304;2022-07-31T00:32:04;100352.78;;;21.40;96.77
73817;BME280;62146;53.232;-1.304;2022-07-31T00:34:31;100351.78;;;21.36;96.48
73817;BME280;62146;53.232;-1.304;2022-07-31T00:36:58;100348.25;;;21.27;96.89
73817;BME280;62146;53.232;-1.304;2022-07-31T00:39:24;100342.03;;;21.26;96.89
73817;BME280;62146;53.232;-1.304;2022-07-31T00:41:51;100342.25;;;21.30;96.57
73817;BME280;62146;53.232;-1.304;2022-07-31T00:44:20;100336.06;;;21.29;96.43
73817;BME280;62146;53.232;-1.304;2022-07-31T00:46:48;100334.75;;;21.27;96.74
73817;BME280;62146;53.232;-1.304;2022-07-31T00:49:14;100335.84;;;21.26;97.08
73817;BME280;62146;53.232;-1.304;2022-07-31T00:51:41;100332.66;;;21.24;96.94
73817;BME280;62146;53.232;-1.304;2022-07-31T00:54:09;100326.97;;;21.25;96.67
73817;BME280;62146;53.232;-1.304;2022-07-31T00:56:48;100317.22;;;21.16;97.56
73817;BME280;62146;53.232;-1.304;2022-07-31T00:59:15;100316.94;;;21.18;97.49
73817;BME280;62146;53.232;-1.304;2022-07-31T01:01:50;100320.41;;;21.18;96.94
73817;BME280;62146;53.232;-1.304;2022-07-31T01:04:16;100316.25;;;21.12;97.16
73817;BME280;62146;53.232;-1.304;2022-07-31T01:06:45;100313.25;;;21.14;97.57
73817;BME280;62146;53.232;-1.304;2022-07-31T01:09:12;100307.88;;;21.14;97.59
73817;BME280;62146;53.232;-1.304;2022-07-31T01:14:12;100302.78;;;21.20;96.81
73817;BME280;62146;53.232;-1.304;2022-07-31T01:16:43;100304.84;;;21.15;97.75
73817;BME280;62146;53.232;-1.304;2022-07-31T01:19:22;100308.66;;;21.14;97.98
73817;BME280;62146;53.232;-1.304;2022-07-31T01:30:19;100301.22;;;21.20;97.92
73817;BME280;62146;53.232;-1.304;2022-07-31T01:32:49;100298.34;;;21.16;98.16
73817;BME280;62146;53.232;-1.304;2022-07-31T01:35:22;100299.88;;;21.09;97.96
73817;BME280;62146;53.232;-1.304;2022-07-31T01:37:58;100295.59;;;21.08;98.71
73817;BME280;62146;53.232;-1.304;2022-07-31T01:40:48;100296.72;;;21.07;99.25
73817;BME280;62146;53.232;-1.304;2022-07-31T01:43:24;100290.72;;;21.10;98.31
73817;BME280;62146;53.232;-1.304;2022-07-31T01:45:55;100284.81;;;21.08;98.49
73817;BME280;62146;53.232;-1.304;2022-07-31T01:48:24;100286.22;;;21.05;98.73
73817;BME280;62146;53.232;-1.304;2022-07-31T01:50:54;100288.13;;;21.05;98.96
73817;BME280;62146;53.232;-1.304;2022-07-31T01:53:23;100291.13;;;21.03;99.28
73817;BME280;62146;53.232;-1.304;2022-07-31T01:55:52;100279.19;;;20.96;99.49
73817;BME280;62146;53.232;-1.304;2022-07-31T01:58:32;100279.84;;;21.01;99.09
73817;BME280;62146;53.232;-1.304;2022-07-31T02:01:01;100277.28;;;20.96;99.54
73817;BME280;62146;53.232;-1.304;2022-07-31T02:03:30;100267.31;;;20.97;99.12
73817;BME280;62146;53.232;-1.304;2022-07-31T02:06:15;100270.31;;;20.95;99.69
73817;BME280;62146;53.232;-1.304;2022-07-31T02:08:48;100264.41;;;20.93;99.52
73817;BME280;62146;53.232;-1.304;2022-07-31T02:11:17;100262.38;;;20.91;99.64
73817;BME280;62146;53.232;-1.304;2022-07-31T02:13:46;100264.56;;;20.89;100.00
73817;BME280;62146;53.232;-1.304;2022-07-31T02:16:13;100263.44;;;20.90;99.92
73817;BME280;62146;53.232;-1.304;2022-07-31T02:18:42;100259.97;;;20.89;99.70
73817;BME280;62146;53.232;-1.304;2022-07-31T02:21:09;100260.13;;;20.93;99.91
73817;BME280;62146;53.232;-1.304;2022-07-31T02:23:36;100250.44;;;20.83;100.00
73817;BME280;62146;53.232;-1.304;2022-07-31T02:26:04;100250.44;;;20.83;99.97
73817;BME280;62146;53.232;-1.304;2022-07-31T02:28:34;100244.22;;;20.83;100.00
73817;BME280;62146;53.232;-1.304;2022-07-31T02:31:02;100240.88;;;20.77;100.00
73817;BME280;62146;53.232;-1.304;2022-07-31T02:33:29;100241.38;;;20.79;100.00
73817;BME280;62146;53.232;-1.304;2022-07-31T02:35:57;100238.97;;;20.78;100.00
73817;BME280;62146;53.232;-1.304;2022-07-31T02:38:26;100235.78;;;20.76;100.00
73817;BME280;62146;53.232;-1.304;2022-07-31T02:40:57;100238.50;;;20.76;100.00
73817;BME280;62146;53.232;-1.304;2022-07-31T02:43:25;100227.06;;;20.79;100.00
73817;BME280;62146;53.232;-1.304;2022-07-31T02:45:54;100222.50;;;20.79;100.00
73817;BME280;62146;53.232;-1.304;2022-07-31T02:48:22;100219.66;;;20.84;100.00
73817;BME280;62146;53.232;-1.304;2022-07-31T02:50:50;100207.59;;;20.90;100.00
73817;BME280;62146;53.232;-1.304;2022-07-31T02:53:17;100214.44;;;20.88;100.00
73817;BME280;62146;53.232;-1.304;2022-07-31T02:55:44;100209.81;;;20.80;100.00
73817;BME280;62146;53.232;-1.304;2022-07-31T02:58:11;100195.56;;;20.88;100.00
73817;BME280;62146;53.232;-1.304;2022-07-31T03:00:38;100196.63;;;20.87;100.00
73817;BME280;62146;53.232;-1.304;2022-07-31T03:03:05;100196.53;;;20.92;100.00
73817;BME280;62146;53.232;-1.304;2022-07-31T03:05:31;100184.88;;;20.83;100.00
73817;BME280;62146;53.232;-1.304;2022-07-31T03:07:58;100184.88;;;20.83;100.00
73817;BME280;62146;53.232;-1.304;2022-07-31T03:10:24;100183.63;;;20.80;100.00
73817;BME280;62146;53.232;-1.304;2022-07-31T03:12:52;100177.13;;;20.81;100.00
73817;BME280;62146;53.232;-1.304;2022-07-31T03:15:23;100186.63;;;20.79;100.00
73817;BME280;62146;53.232;-1.304;2022-07-31T03:17:52;100182.03;;;20.79;100.00
73817;BME280;62146;53.232;-1.304;2022-07-31T03:20:20;100178.84;;;20.77;100.00
73817;BME280;62146;53.232;-1.304;2022-07-31T03:22:47;100178.38;;;20.75;100.00
73817;BME280;62146;53.232;-1.304;2022-07-31T03:25:14;100172.00;;;20.71;100.00
73817;BME280;62146;53.232;-1.304;2022-07-31T03:27:49;100171.19;;;20.71;100.00
73817;BME280;62146;53.232;-1.304;2022-07-31T03:30:22;100169.63;;;20.70;100.00
73817;BME280;62146;53.232;-1.304;2022-07-31T03:32:51;100172.00;;;20.71;100.00
73817;BME280;62146;53.232;-1.304;2022-07-31T03:35:18;100169.00;;;20.73;100.00
73817;BME280;62146;53.232;-1.304;2022-07-31T03:37:45;100169.63;;;20.70;100.00
73817;BME280;62146;53.232;-1.304;2022-07-31T03:40:12;100174.03;;;20.66;100.00
73817;BME280;62146;53.232;-1.304;2022-07-31T03:42:39;100164.66;;;20.64;100.00
73817;BME280;62146;53.232;-1.304;2022-07-31T03:45:08;100163.25;;;20.66;100.00
73817;BME280;62146;53.232;-1.304;2022-07-31T03:47:36;100168.31;;;20.67;100.00
73817;BME280;62146;53.232;-1.304;2022-07-31T03:50:03;100165.81;;;20.71;100.00
73817;BME280;62146;53.232;-1.304;2022-07-31T03:52:31;100158.97;;;20.65;100.00
73817;BME280;62146;53.232;-1.304;2022-07-31T03:54:58;100161.53;;;20.70;100.00
73817;BME280;62146;53.232;-1.304;2022-07-31T03:57:25;100150.88;;;20.65;100.00
73817;BME280;62146;53.232;-1.304;2022-07-31T03:59:57;100150.28;;;20.68;100.00
73817;BME280;62146;53.232;-1.304;2022-07-31T04:02:26;100142.66;;;20.70;100.00
73817;BME280;62146;53.232;-1.304;2022-07-31T04:04:54;100150.13;;;20.73;100.00
73817;BME280;62146;53.232;-1.304;2022-07-31T04:07:20;100143.78;;;20.69;100.00
73817;BME280;62146;53.232;-1.304;2022-07-31T04:09:47;100133.34;;;20.76;100.00
73817;BME280;62146;53.232;-1.304;2022-07-31T04:12:14;100137.16;;;20.83;100.00
73817;BME280;62146;53.232;-1.304;2022-07-31T04:14:40;100135.72;;;20.77;100.00
73817;BME280;62146;53.232;-1.304;2022-07-31T04:17:07;100136.81;;;20.76;100.00
73817;BME280;62146;53.232;-1.304;2022-07-31T04:19:34;100126.84;;;20.77;100.00
73817;BME280;62146;53.232;-1.304;2022-07-31T04:22:01;100133.78;;;20.69;100.00
73817;BME280;62146;53.232;-1.304;2022-07-31T04:24:28;100129.50;;;20.68;100.00
73817;BME280;62146;53.232;-1.304;2022-07-31T04:26:56;100143.44;;;20.70;100.00
73817;BME280;62146;53.232;-1.304;2022-07-31T04:29:23;100129.69;;;20.72;100.00
73817;BME280;62146;53.232;-1.304;2022-07-31T04:31:50;100142.66;;;20.70;100.00
73817;BME280;62146;53.232;-1.304;2022-07-31T04:34:16;100135.19;;;20.67;100.00
73817;BME280;62146;53.232;-1.304;2022-07-31T04:36:43;100141.88;;;20.69;100.00
73817;BME280;62146;53.232;-1.304;2022-07-31T04:39:11;100136.66;;;20.73;100.00
73817;BME280;62146;53.232;-1.304;2022-07-31T04:41:37;100139.81;;;20.75;100.00
73817;BME280;62146;53.232;-1.304;2022-07-31T04:44:05;100138.22;;;20.74;100.00
73817;BME280;62146;53.232;-1.304;2022-07-31T04:46:31;100129.97;;;20.70;100.00
73817;BME280;62146;53.232;-1.304;2022-07-31T04:48:58;100142.22;;;20.76;100.00
73817;BME280;62146;53.232;-1.304;2022-07-31T04:51:25;100139.78;;;20.67;100.00
73817;BME280;62146;53.232;-1.304;2022-07-31T04:53:51;100139.50;;;20.68;100.00
73817;BME280;62146;53.232;-1.304;2022-07-31T04:56:18;100140.47;;;20.72;100.00
73817;BME280;62146;53.232;-1.304;2022-07-31T04:59:12;100142.66;;;20.70;100.00
73817;BME280;62146;53.232;-1.304;2022-07-31T05:01:40;100149.81;;;20.74;100.00
73817;BME280;62146;53.232;-1.304;2022-07-31T05:04:09;100139.63;;;20.71;100.00
73817;BME280;62146;53.232;-1.304;2022-07-31T05:06:41;100135.53;;;20.74;100.00
73817;BME280;62146;53.232;-1.304;2022-07-31T05:09:14;100138.53;;;20.64;100.00
73817;BME280;62146;53.232;-1.304;2022-07-31T05:11:48;100145.03;;;20.71;100.00
73817;BME280;62146;53.232;-1.304;2022-07-31T05:14:17;100139.03;;;20.74;100.00
73817;BME280;62146;53.232;-1.304;2022-07-31T05:16:44;100139.81;;;20.75;100.00
73817;BME280;62146;53.232;-1.304;2022-07-31T05:19:12;100137.97;;;20.84;100.00
73817;BME280;62146;53.232;-1.304;2022-07-31T05:21:41;100132.22;;;20.77;100.00
73817;BME280;62146;53.232;-1.304;2022-07-31T05:24:19;100134.47;;;20.83;100.00
73817;BME280;62146;53.232;-1.304;2022-07-31T05:26:59;100142.56;;;20.83;100.00
73817;BME280;62146;53.232;-1.304;2022-07-31T05:29:26;100135.63;;;20.91;100.00
73817;BME280;62146;53.232;-1.304;2022-07-31T05:31:52;100135.00;;;21.02;100.00
73817;BME280;62146;53.232;-1.304;2022-07-31T05:34:29;100139.41;;;20.98;100.00
73817;BME280;62146;53.232;-1.304;2022-07-31T05:37:00;100130.84;;;20.88;100.00
73817;BME280;62146;53.232;-1.304;2022-07-31T05:39:27;100139.91;;;21.00;100.00
73817;BME280;62146;53.232;-1.304;2022-07-31T05:41:54;100135.66;;;21.16;100.00
73817;BME280;62146;53.232;-1.304;2022-07-31T05:44:21;100137.75;;;21.19;100.00
73817;BME280;62146;53.232;-1.304;2022-07-31T05:46:47;100133.28;;;21.14;100.00
73817;BME280;62146;53.232;-1.304;2022-07-31T05:49:14;100131.91;;;21.25;100.00
73817;BME280;62146;53.232;-1.304;2022-07-31T05:51:44;100133.94;;;21.28;100.00
73817;BME280;62146;53.232;-1.304;2022-07-31T05:54:12;100133.78;;;21.24;100.00
73817;BME280;62146;53.232;-1.304;2022-07-31T05:56:39;100128.88;;;21.26;100.00
73817;BME280;62146;53.232;-1.304;2022-07-31T05:59:05;100129.25;;;21.42;100.00
73817;BME280;62146;53.232;-1.304;2022-07-31T06:01:32;100133.53;;;21.51;100.00
73817;BME280;62146;53.232;-1.304;2022-07-31T06:03:59;100134.66;;;21.50;99.87
73817;BME280;62146;53.232;-1.304;2022-07-31T06:06:25;100127.19;;;21.64;99.88
73817;BME280;62146;53.232;-1.304;2022-07-31T06:08:52;100135.28;;;21.72;99.52
73817;BME280;62146;53.232;-1.304;2022-07-31T06:11:19;100136.41;;;21.79;99.19
73817;BME280;62146;53.232;-1.304;2022-07-31T06:13:45;100134.50;;;21.80;98.86
73817;BME280;62146;53.232;-1.304;2022-07-31T06:16:13;100142.28;;;21.81;98.74
73817;BME280;62146;53.232;-1.304;2022-07-31T06:18:40;100134.19;;;21.90;98.13
73817;BME280;62146;53.232;-1.304;2022-07-31T06:21:07;100144.19;;;21.98;97.96
73817;BME280;62146;53.232;-1.304;2022-07-31T06:23:34;100147.81;;;21.93;97.96
73817;BME280;62146;53.232;-1.304;2022-07-31T06:26:01;100144.50;;;22.04;97.75
73817;BME280;62146;53.232;-1.304;2022-07-31T06:28:28;100138.13;;;22.01;97.72
73817;BME280;62146;53.232;-1.304;2022-07-31T06:31:21;100142.44;;;22.10;97.61
73817;BME280;62146;53.232;-1.304;2022-07-31T06:33:48;100140.22;;;22.03;98.27
73817;BME280;62146;53.232;-1.304;2022-07-31T06:36:17;100141.31;;;22.02;98.23
73817;BME280;62146;53.232;-1.304;2022-07-31T06:38:43;100139.25;;;21.91;99.03
73817;BME280;62146;53.232;-1.304;2022-07-31T06:41:11;100143.88;;;21.91;99.02
73817;BME280;62146;53.232;-1.304;2022-07-31T06:43:58;100146.72;;;21.94;99.08
73817;BME280;62146;53.232;-1.304;2022-07-31T06:46:24;100137.38;;;21.83;99.53
73817;BME280;62146;53.232;-1.304;2022-07-31T06:48:51;100144.50;;;21.88;99.90
73817;BME280;62146;53.232;-1.304;2022-07-31T06:51:17;100150.53;;;22.02;98.85
73817;BME280;62146;53.232;-1.304;2022-07-31T06:54:00;100149.09;;;22.12;98.30
73817;BME280;62146;53.232;-1.304;2022-07-31T06:56:28;100147.06;;;22.18;97.71
73817;BME280;62146;53.232;-1.304;2022-07-31T06:58:55;100150.97;;;22.37;97.01
73817;BME280;62146;53.232;-1.304;2022-07-31T07:01:22;100143.78;;;22.49;96.76
73817;BME280;62146;53.232;-1.304;2022-07-31T07:03:48;100146.59;;;22.61;96.65
73817;BME280;62146;53.232;-1.304;2022-07-31T07:06:15;100149.47;;;22.64;95.75
73817;BME280;62146;53.232;-1.304;2022-07-31T07:08:42;100155.63;;;22.73;95.56
73817;BME280;62146;53.232;-1.304;2022-07-31T07:11:08;100147.91;;;22.55;95.46
73817;BME280;62146;53.232;-1.304;2022-07-31T07:13:38;100156.03;;;22.55;95.83
73817;BME280;62146;53.232;-1.304;2022-07-31T07:16:13;100151.25;;;22.52;96.18
73817;BME280;62146;53.232;-1.304;2022-07-31T07:18:40;100163.97;;;22.60;95.86
73817;BME280;62146;53.232;-1.304;2022-07-31T07:21:08;100161.88;;;22.65;95.72
73817;BME280;62146;53.232;-1.304;2022-07-31T07:23:35;100165.50;;;22.69;95.21
73817;BME280;62146;53.232;-1.304;2022-07-31T07:26:02;100151.03;;;22.82;94.67
73817;BME280;62146;53.232;-1.304;2022-07-31T07:28:29;100158.13;;;22.95;94.14
73817;BME280;62146;53.232;-1.304;2022-07-31T07:30:57;100154.59;;;23.03;94.32
73817;BME280;62146;53.232;-1.304;2022-07-31T07:33:24;100160.03;;;23.23;93.15
73817;BME280;62146;53.232;-1.304;2022-07-31T07:36:05;100154.13;;;23.58;91.23
73817;BME280;62146;53.232;-1.304;2022-07-31T07:38:32;100149.25;;;23.92;90.06
73817;BME280;62146;53.232;-1.304;2022-07-31T07:41:01;100149.94;;;24.20;89.30
73817;BME280;62146;53.232;-1.304;2022-07-31T07:43:27;100150.28;;;24.19;88.33
73817;BME280;62146;53.232;-1.304;2022-07-31T07:45:54;100152.91;;;24.27;88.69
73817;BME280;62146;53.232;-1.304;2022-07-31T07:48:21;100153.91;;;24.23;88.17
73817;BME280;62146;53.232;-1.304;2022-07-31T07:50:47;100148.66;;;24.18;87.75
73817;BME280;62146;53.232;-1.304;2022-07-31T07:53:14;100146.03;;;24.30;88.47
73817;BME280;62146;53.232;-1.304;2022-07-31T07:55:40;100154.19;;;24.42;87.44
73817;BME280;62146;53.232;-1.304;2022-07-31T07:58:07;100153.59;;;24.36;87.67
73817;BME280;62146;53.232;-1.304;2022-07-31T08:00:38;100153.31;;;24.49;86.80
73817;BME280;62146;53.232;-1.304;2022-07-31T08:03:04;100151.91;;;24.12;87.55
73817;BME280;62146;53.232;-1.304;2022-07-31T08:05:52;100154.38;;;24.37;86.86
73817;BME280;62146;53.232;-1.304;2022-07-31T08:08:18;100161.63;;;24.13;86.95
73817;BME280;62146;53.232;-1.304;2022-07-31T08:10:45;100160.44;;;24.02;87.34
73817;BME280;62146;53.232;-1.304;2022-07-31T08:13:11;100163.56;;;23.92;88.48
73817;BME280;62146;53.232;-1.304;2022-07-31T08:15:38;100158.28;;;23.95;88.08
73817;BME280;62146;53.232;-1.304;2022-07-31T08:18:05;100166.47;;;23.87;88.61
73817;BME280;62146;53.232;-1.304;2022-07-31T08:20:31;100159.53;;;23.78;89.56
73817;BME280;62146;53.232;-1.304;2022-07-31T08:22:58;100162.97;;;23.87;89.92
73817;BME280;62146;53.232;-1.304;2022-07-31T08:25:24;100161.06;;;24.07;88.76
73817;BME280;62146;53.232;-1.304;2022-07-31T08:27:57;100166.94;;;23.89;89.73
73817;BME280;62146;53.232;-1.304;2022-07-31T08:30:24;100160.88;;;23.92;89.55
73817;BME280;62146;53.232;-1.304;2022-07-31T08:32:56;100171.44;;;23.85;90.47
73817;BME280;62146;53.232;-1.304;2022-07-31T08:35:24;100173.38;;;24.37;88.47
73817;BME280;62146;53.232;-1.304;2022-07-31T08:37:50;100171.38;;;24.46;87.60
73817;BME280;62146;53.232;-1.304;2022-07-31T08:40:29;100169.13;;;24.47;86.73
73817;BME280;62146;53.232;-1.304;2022-07-31T08:42:57;100160.41;;;24.42;86.63
73817;BME280;62146;53.232;-1.304;2022-07-31T08:45:27;100172.19;;;24.46;86.59
73817;BME280;62146;53.232;-1.304;2022-07-31T08:47:54;100167.44;;;24.55;86.37
73817;BME280;62146;53.232;-1.304;2022-07-31T08:50:23;100168.28;;;24.35;86.78
73817;BME280;62146;53.232;-1.304;2022-07-31T08:52:52;100174.53;;;24.47;86.02
73817;BME280;62146;53.232;-1.304;2022-07-31T08:55:21;100168.19;;;24.44;86.39
73817;BME280;62146;53.232;-1.304;2022-07-31T08:58:08;100171.03;;;24.47;86.33
73817;BME280;62146;53.232;-1.304;2022-07-31T09:00:34;100181.31;;;24.42;86.12
73817;BME280;62146;53.232;-1.304;2022-07-31T09:03:01;100192.44;;;24.60;85.32
73817;BME280;62146;53.232;-1.304;2022-07-31T09:05:28;100193.16;;;24.69;84.87
73817;BME280;62146;53.232;-1.304;2022-07-31T09:08:08;100189.28;;;24.70;85.35
73817;BME280;62146;53.232;-1.304;2022-07-31T09:10:40;100193.44;;;24.56;85.06
73817;BME280;62146;53.232;-1.304;2022-07-31T09:13:17;100187.41;;;24.39;85.60
73817;BME280;62146;53.232;-1.304;2022-07-31T09:15:44;100188.03;;;24.24;85.71
73817;BME280;62146;53.232;-1.304;2022-07-31T09:18:18;100188.19;;;24.39;85.09
73817;BME280;62146;53.232;-1.304;2022-07-31T09:20:57;100194.38;;;24.28;85.52
73817;BME280;62146;53.232;-1.304;2022-07-31T09:23:25;100189.78;;;24.40;84.97
73817;BME280;62146;53.232;-1.304;2022-07-31T09:28:19;100206.59;;;24.34;84.62
73817;BME280;62146;53.232;-1.304;2022-07-31T09:30:53;100202.28;;;24.33;85.14
73817;BME280;62146;53.232;-1.304;2022-07-31T09:33:21;100204.78;;;24.26;85.07
73817;BME280;62146;53.232;-1.304;2022-07-31T09:35:50;100207.41;;;24.34;85.14
73817;BME280;62146;53.232;-1.304;2022-07-31T09:38:17;100210.41;;;24.53;84.37
73817;BME280;62146;53.232;-1.304;2022-07-31T09:40:45;100209.97;;;24.63;84.11
73817;BME280;62146;53.232;-1.304;2022-07-31T09:43:23;100215.72;;;24.61;83.65
73817;BME280;62146;53.232;-1.304;2022-07-31T09:45:58;100217.56;;;24.69;83.73
73817;BME280;62146;53.232;-1.304;2022-07-31T09:48:25;100219.91;;;24.59;83.84
73817;BME280;62146;53.232;-1.304;2022-07-31T09:50:59;100221.66;;;24.43;83.63
73817;BME280;62146;53.232;-1.304;2022-07-31T09:53:26;100226.97;;;24.72;83.10
73817;BME280;62146;53.232;-1.304;2022-07-31T09:56:08;100224.44;;;24.87;81.91
73817;BME280;62146;53.232;-1.304;2022-07-31T09:58:38;100217.47;;;25.21;80.66
73817;BME280;62146;53.232;-1.304;2022-07-31T10:01:09;100231.25;;;25.40;80.31
73817;BME280;62146;53.232;-1.304;2022-07-31T10:03:37;100226.59;;;25.87;78.13
73817;BME280;62146;53.232;-1.304;2022-07-31T10:06:05;100226.44;;;26.62;75.99
73817;BME280;62146;53.232;-1.304;2022-07-31T10:08:35;100224.00;;;26.57;75.55
73817;BME280;62146;53.232;-1.304;2022-07-31T10:11:03;100224.78;;;26.57;74.97
73817;BME280;62146;53.232;-1.304;2022-07-31T10:13:35;100228.53;;;26.53;75.19
73817;BME280;62146;53.232;-1.304;2022-07-31T10:16:07;100234.66;;;27.04;74.31
73817;BME280;62146;53.232;-1.304;2022-07-31T10:18:37;100232.75;;;27.35;71.93
73817;BME280;62146;53.232;-1.304;2022-07-31T10:21:10;100237.78;;;26.90;72.34
73817;BME280;62146;53.232;-1.304;2022-07-31T10:23:40;100242.25;;;26.56;74.38
73817;BME280;62146;53.232;-1.304;2022-07-31T10:26:07;100242.25;;;25.67;78.04
73817;BME280;62146;53.232;-1.304;2022-07-31T10:28:36;100238.41;;;25.56;78.88
73817;BME280;62146;53.232;-1.304;2022-07-31T10:31:03;100242.59;;;25.54;79.53
73817;BME280;62146;53.232;-1.304;2022-07-31T10:33:30;100239.19;;;25.80;78.28
73817;BME280;62146;53.232;-1.304;2022-07-31T10:36:17;100247.16;;;26.12;77.40
73817;BME280;62146;53.232;-1.304;2022-07-31T10:38:59;100249.28;;;26.99;73.72
73817;BME280;62146;53.232;-1.304;2022-07-31T10:41:45;100236.53;;;26.61;73.49
73817;BME280;62146;53.232;-1.304;2022-07-31T10:44:32;100248.63;;;26.48;73.78
73817;BME280;62146;53.232;-1.304;2022-07-31T10:47:11;100247.22;;;26.54;73.54
73817;BME280;62146;53.232;-1.304;2022-07-31T10:49:43;100248.50;;;26.99;71.26
73817;BME280;62146;53.232;-1.304;2022-07-31T10:52:10;100250.47;;;27.29;69.54
73817;BME280;62146;53.232;-1.304;2022-07-31T10:54:45;100252.78;;;27.42;69.19
73817;BME280;62146;53.232;-1.304;2022-07-31T10:57:25;100254.66;;;26.42;70.96
73817;BME280;62146;53.232;-1.304;2022-07-31T10:59:52;100266.56;;;25.28;76.39
73817;BME280;62146;53.232;-1.304;2022-07-31T11:02:34;100278.66;;;24.55;79.62
73817;BME280;62146;53.232;-1.304;2022-07-31T11:05:19;100286.03;;;24.14;82.44
73817;BME280;62146;53.232;-1.304;2022-07-31T11:08:01;100297.78;;;23.69;83.13
73817;BME280;62146;53.232;-1.304;2022-07-31T11:10:29;100306.94;;;23.48;85.10
73817;BME280;62146;53.232;-1.304;2022-07-31T11:13:04;100312.56;;;23.35;86.14
73817;BME280;62146;53.232;-1.304;2022-07-31T11:15:31;100327.44;;;23.12;86.99
73817;BME280;62146;53.232;-1.304;2022-07-31T11:17:57;100324.78;;;22.62;89.39
73817;BME280;62146;53.232;-1.304;2022-07-31T11:20:45;100321.75;;;22.64;89.75
73817;BME280;62146;53.232;-1.304;2022-07-31T11:23:16;100331.31;;;22.70;90.59
73817;BME280;62146;53.232;-1.304;2022-07-31T11:25:44;100325.56;;;22.46;90.50
73817;BME280;62146;53.232;-1.304;2022-07-31T11:28:18;100332.88;;;22.54;91.36
73817;BME280;62146;53.232;-1.304;2022-07-31T11:33:34;100341.97;;;22.58;91.86
73817;BME280;62146;53.232;-1.304;2022-07-31T11:36:13;100346.56;;;22.41;91.37
73817;BME280;62146;53.232;-1.304;2022-07-31T11:38:51;100354.19;;;22.30;91.65
73817;BME280;62146;53.232;-1.304;2022-07-31T11:41:18;100355.75;;;22.15;92.62
73817;BME280;62146;53.232;-1.304;2022-07-31T11:43:50;100364.38;;;22.17;93.05
73817;BME280;62146;53.232;-1.304;2022-07-31T11:46:30;100362.28;;;22.22;91.71
73817;BME280;62146;53.232;-1.304;2022-07-31T11:48:59;100370.28;;;22.44;91.98
73817;BME280;62146;53.232;-1.304;2022-07-31T11:51:27;100369.81;;;22.58;90.45
73817;BME280;62146;53.232;-1.304;2022-07-31T11:53:54;100374.25;;;22.71;90.73
73817;BME280;62146;53.232;-1.304;2022-07-31T11:56:24;100371.91;;;22.78;90.57
73817;BME280;62146;53.232;-1.304;2022-07-31T11:58:55;100373.47;;;22.62;91.06
73817;BME280;62146;53.232;-1.304;2022-07-31T12:01:27;100377.44;;;22.48;91.05
73817;BME280;62146;53.232;-1.304;2022-07-31T12:03:56;100377.91;;;22.33;90.96
73817;BME280;62146;53.232;-1.304;2022-07-31T12:06:34;100387.59;;;22.34;92.22
73817;BME280;62146;53.232;-1.304;2022-07-31T12:09:02;100389.03;;;22.65;90.67
73817;BME280;62146;53.232;-1.304;2022-07-31T12:11:29;100394.28;;;22.54;89.63
73817;BME280;62146;53.232;-1.304;2022-07-31T12:13:56;100397.19;;;22.74;90.08
73817;BME280;62146;53.232;-1.304;2022-07-31T12:16:24;100399.06;;;22.56;89.56
73817;BME280;62146;53.232;-1.304;2022-07-31T12:18:54;100397.47;;;22.72;89.79
73817;BME280;62146;53.232;-1.304;2022-07-31T12:21:32;100399.41;;;23.13;89.36
73817;BME280;62146;53.232;-1.304;2022-07-31T12:24:01;100400.69;;;23.16;88.78
73817;BME280;62146;53.232;-1.304;2022-07-31T12:26:31;100406.88;;;23.16;88.66
73817;BME280;62146;53.232;-1.304;2022-07-31T12:29:00;100412.13;;;23.46;87.11
73817;BME280;62146;53.232;-1.304;2022-07-31T12:31:28;100412.75;;;23.35;87.22
73817;BME280;62146;53.232;-1.304;2022-07-31T12:33:55;100418.66;;;23.29;88.07
73817;BME280;62146;53.232;-1.304;2022-07-31T12:36:22;100426.53;;;23.67;86.82
73817;BME280;62146;53.232;-1.304;2022-07-31T12:39:03;100420.53;;;23.62;85.98
73817;BME280;62146;53.232;-1.304;2022-07-31T12:41:40;100422.56;;;23.64;85.26
73817;BME280;62146;53.232;-1.304;2022-07-31T12:44:11;100426.22;;;24.05;83.50
73817;BME280;62146;53.232;-1.304;2022-07-31T12:46:40;100427.31;;;25.10;80.01
73817;BME280;62146;53.232;-1.304;2022-07-31T12:49:07;100427.53;;;25.81;77.60
73817;BME280;62146;53.232;-1.304;2022-07-31T12:51:34;100426.41;;;25.81;78.69
73817;BME280;62146;53.232;-1.304;2022-07-31T12:54:13;100424.94;;;25.72;76.99
73817;BME280;62146;53.232;-1.304;2022-07-31T12:56:41;100420.75;;;25.43;78.03
73817;BME280;62146;53.232;-1.304;2022-07-31T12:59:08;100420.06;;;25.02;82.01
73817;BME280;62146;53.232;-1.304;2022-07-31T13:01:36;100425.31;;;24.58;82.17
73817;BME280;62146;53.232;-1.304;2022-07-31T13:04:03;100434.78;;;24.52;80.66
73817;BME280;62146;53.232;-1.304;2022-07-31T13:06:44;100429.34;;;24.73;80.07